Hlavní strana
METAR-TAF:

METAR-TAF

Letiště :

Jacksonville Municipal Airport

Jacksonville, Illinois, Spojené státy americké

zeměpisná šířka: 39-46-27N, zeměpisná délka: 090-14-19W, výška: 190 m

Aktuální stav počasí

Zpráva byla vytvořena před 31 minutami, v 13:35 UTC
Západoseverozápadní vítr 6 kt
Teplota -2°C
Vlhkost vzduchu 93%
Tlak 1021 hPa
Viditelnost: 6.4 km
Zataženo ve výšce 600 ft
kouřmo

METAR: KIJX 281335Z AUTO 30006KT 4SM BR OVC006 M02/M03 A3014 RMK AO2 T10221027

Čas: 08:06 (14:06 UTC)


TAF: chybějící

Stav a předpovědi počasí z více než 4 000 letišť (zprávy METAR a TAF).

Červené a žluté tečky na mapě představují dostupné meteorologické stanice.

Když kurzor umístíte na tečku, zobrazí se název stanice.

Pak kliknutím zobrazíte stav a předpověď počasí.

Chcete-li změnit mapu, kliknutím na zelené tlačítko se znaménkem +mapu přiblížíte, kliknutím na zelené tlačítko se znaménkem – mapu oddálíte a kliknutím na zelené šipky přejdete na sousední mapy.


METAR-TAF: